Time;durP1;ratioP1;P1;durP2;ratioP2;P2;SDS_P1;SDS_P2;PMS_P1;PMS_P2;Temp;Humidity;BMP_temperature;BMP_pressure;BME280_temperature;BME280_humidity;BME280_pressure;Samples;Min_cycle;Max_cycle;Signal;HPM_P1;HPM_P2
2023/12/22 00:01:35;;;;;;;5.30;1.90;;;;;;;8.82;93.62;97941.19;7229069;40;20257;31
2023/12/22 00:07:10;;;;;;;6.03;1.93;;;;;;;8.88;93.80;97945.84;7192715;40;20228;31
2023/12/22 00:12:31;;;;;;;5.63;1.67;;;;;;;8.88;93.82;97942.31;7196153;40;20358;31
2023/12/22 00:18:07;;;;;;;3.45;1.60;;;;;;;8.80;93.65;97956.69;7197915;40;20266;31
2023/12/22 00:23:28;;;;;;;5.75;1.65;;;;;;;8.84;93.00;97955.28;7126629;40;20395;31
2023/12/22 00:28:49;;;;;;;4.77;1.70;;;;;;;8.87;92.81;97956.75;7131265;40;20261;31
2023/12/22 00:34:24;;;;;;;7.15;1.90;;;;;;;8.83;92.06;97967.06;7194798;40;20238;31
2023/12/22 00:39:44;;;;;;;5.65;1.80;;;;;;;8.86;91.85;97949.75;7186732;40;20263;31
2023/12/22 00:45:19;;;;;;;6.60;2.00;;;;;;;8.81;91.37;97898.44;7226736;40;20245;31
2023/12/22 00:50:55;;;;;;;5.60;1.83;;;;;;;8.76;91.01;97912.41;7218817;40;20258;31
2023/12/22 00:56:16;;;;;;;4.57;1.73;;;;;;;8.74;89.89;97938.62;7221955;40;20273;31
2023/12/22 01:06:52;;;;;;;5.80;1.93;;;;;;;8.61;88.11;97943.81;7275188;39;20257;31
2023/12/22 01:12:23;;;;;;;5.65;1.60;;;;;;;8.61;88.00;97949.19;7078242;39;20299;31
2023/12/22 01:17:44;;;;;;;4.77;1.60;;;;;;;8.56;87.13;97965.84;7266613;40;20354;31
2023/12/22 01:23:21;;;;;;;2.90;1.37;;;;;;;8.49;86.79;97964.91;7277047;39;20261;31
2023/12/22 01:28:41;;;;;;;6.60;1.60;;;;;;;8.51;87.13;97956.69;7250679;40;20241;31
2023/12/22 01:34:17;;;;;;;5.30;1.60;;;;;;;8.44;86.14;97974.53;7234730;40;20242;31
2023/12/22 01:39:54;;;;;;;2.78;1.33;;;;;;;8.43;86.44;97988.97;7219714;40;20329;31
2023/12/22 01:45:13;;;;;;;3.25;1.30;;;;;;;8.42;85.90;97990.00;7206209;40;20245;31
2023/12/22 01:50:50;;;;;;;4.20;1.70;;;;;;;8.32;85.70;97981.37;7209843;40;20405;31
2023/12/22 01:56:25;;;;;;;5.30;1.80;;;;;;;8.30;85.87;98003.03;7187332;40;20239;31
2023/12/22 02:01:45;;;;;;;5.17;1.80;;;;;;;8.35;85.53;97999.78;7164837;40;20409;31
2023/12/22 02:07:20;;;;;;;8.40;2.00;;;;;;;8.30;87.11;97992.28;7158108;40;20252;31
2023/12/22 02:17:59;;;;;;;5.60;1.70;;;;;;;8.26;86.31;97995.47;7162657;40;20285;31
2023/12/22 02:28:36;;;;;;;7.96;1.86;;;;;;;8.24;85.65;97987.63;7308201;39;21227;31
2023/12/22 02:39:12;;;;;;;7.78;1.96;;;;;;;8.25;86.04;97983.09;7259541;40;21317;31
2023/12/22 02:44:48;;;;;;;9.43;2.10;;;;;;;8.25;84.84;97989.28;7197568;40;20261;31
2023/12/22 02:50:21;;;;;;;7.67;2.13;;;;;;;8.25;84.66;98001.88;7192267;40;20242;31
2023/12/22 02:55:41;;;;;;;8.60;2.23;;;;;;;8.25;84.10;98004.56;7158636;40;20306;31
2023/12/22 03:07:17;;;;;;;4.50;1.83;;;;;;;8.30;85.15;98024.50;7168843;40;20277;31
2023/12/22 03:12:52;;;;;;;5.33;1.60;;;;;;;8.26;86.13;98020.47;7195874;40;20266;31
2023/12/22 03:18:12;;;;;;;5.95;1.80;;;;;;;8.27;86.85;97991.78;7178637;40;20312;31
2023/12/22 03:23:48;;;;;;;6.90;2.10;;;;;;;8.26;87.28;98011.59;7176172;40;20341;31
2023/12/22 03:29:08;;;;;;;6.50;1.80;;;;;;;8.29;87.59;98021.97;7220394;40;20255;31
2023/12/22 03:34:44;;;;;;;5.57;1.60;;;;;;;8.28;87.73;98028.34;7217566;40;20243;31
2023/12/22 03:40:21;;;;;;;5.37;1.60;;;;;;;8.27;88.06;98035.56;7262481;39;20252;31
2023/12/22 03:50:43;;;;;;;8.70;2.00;;;;;;;8.29;88.04;98044.34;7187510;40;20258;31
2023/12/22 03:56:18;;;;;;;7.05;1.70;;;;;;;8.25;86.90;98039.47;7245501;40;20234;31
2023/12/22 04:06:43;;;;;;;3.37;1.60;;;;;;;8.21;87.01;98056.91;7294252;40;20252;31
2023/12/22 04:17:19;;;;;;;4.50;1.87;;;;;;;8.10;86.49;98061.72;7253310;40;21531;31
2023/12/22 04:22:54;;;;;;;3.80;1.57;;;;;;;8.09;85.73;98065.41;7257451;39;20245;31
2023/12/22 04:28:29;;;;;;;2.53;1.53;;;;;;;8.12;86.53;98078.44;7254733;40;20260;31
2023/12/22 04:34:05;;;;;;;5.55;1.95;;;;;;;8.10;85.94;98096.59;7301818;40;20241;31
2023/12/22 04:39:25;;;;;;;7.53;2.00;;;;;;;8.15;86.57;98069.22;7216068;40;20352;31
2023/12/22 04:45:01;;;;;;;9.57;2.03;;;;;;;8.21;87.41;98073.03;7202369;40;20242;31
2023/12/22 04:50:35;;;;;;;6.20;1.85;;;;;;;8.22;87.48;98085.44;7176756;40;20243;31
2023/12/22 04:56:10;;;;;;;5.20;2.00;;;;;;;8.21;87.00;98057.75;7164506;40;20372;31
2023/12/22 05:01:42;;;;;;;6.75;2.15;;;;;;;8.21;86.78;98078.38;7187666;40;20377;31
2023/12/22 05:07:17;;;;;;;8.53;2.47;;;;;;;8.20;87.51;98080.28;7199489;40;20941;31
2023/12/22 05:12:52;;;;;;;9.20;1.95;;;;;;;8.20;86.29;98109.78;7241677;40;20322;31
2023/12/22 05:18:09;;;;;;;7.70;2.60;;;;;;;8.30;86.55;98093.47;7246302;40;20398;31
2023/12/22 05:23:44;;;;;;;9.80;2.60;;;;;;;8.31;85.12;98103.19;7226735;40;20361;31
2023/12/22 05:29:19;;;;;;;8.37;2.40;;;;;;;8.35;85.29;98123.28;7206268;40;20239;31
2023/12/22 05:34:39;;;;;;;9.10;2.50;;;;;;;8.38;85.70;98107.66;7221241;40;20234;31
2023/12/22 05:40:16;;;;;;;10.70;2.70;;;;;;;8.36;85.70;98119.59;7198398;40;20245;31
2023/12/22 05:45:51;;;;;;;14.10;2.40;;;;;;;8.36;85.67;98138.38;7176050;40;20350;31
2023/12/22 05:56:34;;;;;;;7.83;2.30;;;;;;;8.35;84.55;98136.72;7223055;40;21456;31
2023/12/22 06:02:09;;;;;;;8.10;2.40;;;;;;;8.34;84.13;98132.34;7173300;40;20419;31
2023/12/22 06:07:29;;;;;;;7.87;2.10;;;;;;;8.35;84.19;98142.09;7141107;40;20242;31
2023/12/22 06:13:06;;;;;;;7.75;2.25;;;;;;;8.31;82.78;98136.25;7178623;40;20302;31
2023/12/22 06:18:40;;;;;;;8.55;2.15;;;;;;;8.30;83.18;98190.94;7128887;40;20394;31
2023/12/22 06:24:16;;;;;;;6.10;1.90;;;;;;;8.34;83.93;98183.34;7162083;40;20259;31
2023/12/22 06:29:51;;;;;;;5.20;2.10;;;;;;;8.29;84.10;98191.09;7085758;41;20244;31
2023/12/22 06:35:12;;;;;;;7.43;1.85;;;;;;;8.34;84.73;98224.47;7141690;40;21378;31
2023/12/22 06:40:47;;;;;;;5.00;2.00;;;;;;;8.26;85.29;98210.22;7159168;40;20262;31
2023/12/22 06:46:28;;;;;;;6.97;2.17;;;;;;;8.24;86.45;98170.16;7185172;40;20333;31
2023/12/22 06:52:03;;;;;;;7.63;2.10;;;;;;;8.22;86.91;98203.53;7267603;40;20311;31
2023/12/22 06:57:24;;;;;;;6.90;2.00;;;;;;;8.23;87.30;98207.91;7233434;40;20348;31
2023/12/22 07:02:57;;;;;;;4.40;1.87;;;;;;;8.24;87.67;98223.00;7254983;40;20226;31
2023/12/22 07:08:18;;;;;;;4.40;1.70;;;;;;;8.28;87.71;98235.06;7254725;40;20405;31
2023/12/22 07:19:10;;;;;;;8.13;1.83;;;;;;;8.24;89.81;98255.22;7278818;40;20251;31
2023/12/22 07:24:57;;;;;;;;;;;;;;;;;;;;;
2023/12/22 07:30:07;;;;;;;3.27;1.83;;;;;;;8.22;90.94;98255.37;7143716;40;20243;31
2023/12/22 07:35:43;;;;;;;5.93;2.20;;;;;;;8.16;91.32;98238.13;7277856;40;20330;31
2023/12/22 07:41:04;;;;;;;5.17;2.03;;;;;;;8.19;92.01;98241.47;7214253;40;20242;31
2023/12/22 07:46:36;;;;;;;6.55;2.10;;;;;;;8.23;92.71;98250.84;7234972;40;20419;31
2023/12/22 07:52:12;;;;;;;7.73;2.60;;;;;;;8.24;92.09;98271.31;7178312;40;20242;31
2023/12/22 07:57:48;;;;;;;11.30;2.70;;;;;;;8.28;92.05;98286.06;7167998;40;20270;31
2023/12/22 08:03:08;;;;;;;11.17;2.97;;;;;;;8.30;93.01;98278.69;6959814;40;21182;31
2023/12/22 08:08:43;;;;;;;8.83;2.80;;;;;;;8.26;92.40;98275.50;7196325;40;20453;31
2023/12/22 08:14:04;;;;;;;14.50;3.30;;;;;;;8.31;92.86;98293.78;7216965;40;20249;31
2023/12/22 08:19:22;;;;;;;12.25;3.10;;;;;;;8.34;92.92;98290.75;7245323;40;20239;31
2023/12/22 08:24:59;;;;;;;13.30;3.20;;;;;;;8.35;92.01;98292.44;7259977;40;20244;31
2023/12/22 08:30:35;;;;;;;14.07;3.30;;;;;;;8.37;90.90;98288.56;7236558;40;20252;31
2023/12/22 08:36:10;;;;;;;15.20;2.95;;;;;;;8.39;90.53;98267.75;7235208;40;20238;31
2023/12/22 08:41:47;;;;;;;15.60;3.30;;;;;;;8.41;89.70;98265.72;7229663;40;20391;31
2023/12/22 08:47:08;;;;;;;15.67;3.73;;;;;;;8.44;89.62;98283.31;7297753;39;20434;31
2023/12/22 08:57:48;;;;;;;13.38;3.10;;;;;;;8.47;89.36;98291.00;7246608;40;20294;31
2023/12/22 09:08:26;;;;;;;13.83;3.63;;;;;;;8.47;88.05;98273.06;7316049;39;21255;31
2023/12/22 09:14:01;;;;;;;17.60;3.30;;;;;;;8.50;88.15;98274.56;7258136;40;20253;31
2023/12/22 09:19:21;;;;;;;16.70;3.80;;;;;;;8.55;88.27;98283.78;7255699;40;20391;31
2023/12/22 09:24:41;;;;;;;13.70;3.40;;;;;;;8.59;87.58;98298.53;7228847;40;20278;31
2023/12/22 09:30:18;;;;;;;14.63;3.17;;;;;;;8.57;87.46;98288.97;7189886;40;20232;31
2023/12/22 09:35:54;;;;;;;15.53;4.30;;;;;;;8.61;87.46;98298.34;7171884;40;20273;31
2023/12/22 09:41:29;;;;;;;13.05;3.50;;;;;;;8.65;87.20;98293.44;7201761;40;20281;31
2023/12/22 09:47:04;;;;;;;16.50;6.40;;;;;;;8.65;86.98;98315.78;7206751;40;20384;31
2023/12/22 09:52:39;;;;;;;17.50;6.10;;;;;;;8.67;87.73;98311.06;7245863;40;20235;31
2023/12/22 09:58:12;;;;;;;14.90;4.30;;;;;;;8.69;87.55;98306.34;7252721;40;20469;31
2023/12/22 10:03:49;;;;;;;16.00;5.60;;;;;;;8.73;87.03;98298.78;7152302;40;20259;31
2023/12/22 10:09:26;;;;;;;20.10;4.60;;;;;;;8.77;87.82;98300.94;7096607;40;20281;31
2023/12/22 10:15:01;;;;;;;10.20;3.13;;;;;;;8.77;87.89;98275.94;7130586;40;20244;31
2023/12/22 10:20:34;;;;;;;11.85;3.40;;;;;;;8.79;88.37;98271.19;7151300;40;20683;31
2023/12/22 10:26:10;;;;;;;8.83;2.60;;;;;;;8.81;88.66;98264.66;7154726;40;20242;31
2023/12/22 10:31:54;;;;;;;11.30;3.30;;;;;;;8.81;89.96;98264.66;7208798;40;20246;31
2023/12/22 10:37:28;;;;;;;15.35;3.70;;;;;;;8.79;91.01;98253.22;7156931;40;20254;31
2023/12/22 10:43:04;;;;;;;10.37;2.80;;;;;;;8.78;91.00;98251.56;7168216;40;20274;31
2023/12/22 10:48:37;;;;;;;11.27;3.50;;;;;;;8.77;92.54;98241.00;7217956;40;20566;31
2023/12/22 10:59:15;;;;;;;9.80;3.13;;;;;;;8.78;93.45;98238.13;7248796;40;21486;31
2023/12/22 11:09:55;;;;;;;8.60;2.50;;;;;;;8.75;94.58;98232.28;7279987;40;20272;31
2023/12/22 11:20:37;;;;;;;4.75;1.80;;;;;;;8.79;95.33;98214.78;7258340;40;20403;31
2023/12/22 11:26:12;;;;;;;8.60;3.20;;;;;;;8.78;95.14;98187.06;7217348;40;20336;31
2023/12/22 11:31:48;;;;;;;5.55;2.00;;;;;;;8.79;95.84;98169.94;7165720;40;20257;31
2023/12/22 11:37:22;;;;;;;5.15;2.70;;;;;;;8.81;96.49;98170.63;7155610;40;21395;31
2023/12/22 11:42:57;;;;;;;5.10;1.67;;;;;;;8.83;95.50;98155.13;7147672;40;20346;31
2023/12/22 11:48:32;;;;;;;4.50;1.97;;;;;;;8.85;96.39;98147.75;7167654;40;20254;31
2023/12/22 11:54:09;;;;;;;4.70;1.60;;;;;;;8.85;96.43;98137.00;7171851;40;20243;31
2023/12/22 11:59:45;;;;;;;3.80;1.70;;;;;;;8.86;97.31;98140.50;7193581;40;20390;31
2023/12/22 12:05:20;;;;;;;3.90;1.90;;;;;;;8.88;97.30;98120.50;7158987;40;20264;31
2023/12/22 12:11:09;;;;;;;3.35;1.40;;;;;;;8.93;98.33;98114.56;7153589;40;20243;31
2023/12/22 12:16:44;;;;;;;2.00;1.27;;;;;;;8.99;98.12;98120.03;7148936;40;20247;31
2023/12/22 12:22:24;;;;;;;2.97;2.10;;;;;;;9.01;98.70;98093.81;7150876;40;20263;31
2023/12/22 12:27:55;;;;;;;2.40;1.60;;;;;;;9.05;98.57;98097.81;7153438;40;21454;31
2023/12/22 12:33:30;;;;;;;2.07;1.57;;;;;;;9.14;98.46;98074.38;7158208;40;20243;31
2023/12/22 12:39:08;;;;;;;1.30;1.20;;;;;;;9.19;98.79;98068.44;7168415;40;20258;31
2023/12/22 12:44:44;;;;;;;1.70;1.20;;;;;;;9.26;98.98;98085.50;7176540;40;20266;31
2023/12/22 12:50:20;;;;;;;1.70;1.23;;;;;;;9.33;98.40;98065.75;7122932;40;20248;31
2023/12/22 12:55:55;;;;;;;1.60;1.00;;;;;;;9.42;98.28;98074.56;7179780;40;20297;31
2023/12/22 13:01:32;;;;;;;1.25;1.05;;;;;;;9.46;98.56;98075.84;7156632;40;20248;31
2023/12/22 13:07:10;;;;;;;2.42;1.30;;;;;;;9.47;99.17;98089.13;7176196;40;20258;31
2023/12/22 13:12:44;;;;;;;1.50;0.70;;;;;;;9.50;99.00;98077.97;7156969;40;20285;31
2023/12/22 13:18:19;;;;;;;3.43;1.10;;;;;;;9.56;98.83;98084.47;7153878;40;20700;31
2023/12/22 13:28:41;;;;;;;1.47;0.90;;;;;;;9.65;98.54;98079.81;7220127;40;20821;31
2023/12/22 13:39:19;;;;;;;1.77;1.10;;;;;;;9.68;98.63;98074.88;7234416;40;20297;31
2023/12/22 13:49:58;;;;;;;0.80;0.80;;;;;;;9.72;98.45;98091.47;7229045;40;21205;31
2023/12/22 14:00:42;;;;;;;1.07;0.97;;;;;;;9.80;97.27;98083.28;7293788;39;20264;31
2023/12/22 14:06:03;;;;;;;1.47;1.10;;;;;;;9.85;96.72;98088.94;7316828;39;20336;31
2023/12/22 14:17:33;;;;;;;2.20;1.10;;;;;;;9.86;96.50;98098.69;7049813;40;21276;31
2023/12/22 14:22:55;;;;;;;1.30;1.20;;;;;;;9.89;96.10;98088.37;7114944;40;20267;31
2023/12/22 14:28:30;;;;;;;1.63;1.20;;;;;;;9.88;95.58;98108.22;7126472;41;20256;31
2023/12/22 14:34:07;;;;;;;2.77;0.90;;;;;;;9.90;95.56;98106.19;7122383;40;20247;31
2023/12/22 14:39:41;;;;;;;1.10;0.85;;;;;;;9.93;95.34;98126.50;7115033;41;20258;31
2023/12/22 14:45:01;;;;;;;2.10;1.20;;;;;;;9.92;95.18;98139.13;6943548;40;21224;31
2023/12/22 14:50:35;;;;;;;1.20;1.10;;;;;;;9.93;94.73;98118.44;7155531;40;20366;31
2023/12/22 14:55:57;;;;;;;2.30;1.10;;;;;;;10.00;94.78;98137.38;7198691;40;20258;31
2023/12/22 15:01:33;;;;;;;2.30;1.23;;;;;;;9.93;94.31;98113.88;7253639;40;20261;31
2023/12/22 15:07:04;;;;;;;2.33;1.30;;;;;;;9.93;94.30;98138.12;7219588;40;20671;31
2023/12/22 15:12:24;;;;;;;1.70;1.25;;;;;;;10.00;94.17;98154.34;7206924;40;20789;31
2023/12/22 15:23:05;;;;;;;1.30;1.20;;;;;;;10.00;93.76;98154.34;7208265;40;20744;31
2023/12/22 15:33:28;;;;;;;2.00;1.20;;;;;;;10.00;93.46;98181.28;7188571;40;20285;31
2023/12/22 15:39:04;;;;;;;1.10;1.00;;;;;;;9.99;93.32;98176.91;7216655;40;20250;31
2023/12/22 15:49:30;;;;;;;2.10;1.03;;;;;;;10.04;93.06;98192.50;7235477;40;20276;31
2023/12/22 16:00:05;;;;;;;1.50;1.20;;;;;;;10.01;92.98;98203.63;7257392;39;21333;31
2023/12/22 16:05:27;;;;;;;2.80;1.10;;;;;;;10.02;93.82;98218.75;7278085;40;20670;31
2023/12/22 16:10:45;;;;;;;3.10;1.70;;;;;;;10.02;93.70;98205.31;7235626;40;20688;31
2023/12/22 16:16:19;;;;;;;1.83;1.30;;;;;;;10.02;92.86;98224.16;7231999;40;20274;31
2023/12/22 16:21:58;;;;;;;2.47;1.13;;;;;;;10.02;92.92;98243.00;7170969;40;20243;31
2023/12/22 16:27:17;;;;;;;1.70;1.30;;;;;;;10.05;92.63;98238.06;7192890;40;20705;31
2023/12/22 16:32:54;;;;;;;2.50;1.35;;;;;;;9.99;93.12;98244.22;7216112;40;20445;31
2023/12/22 16:38:13;;;;;;;1.47;1.30;;;;;;;9.99;93.63;98233.44;7199641;40;20262;31
2023/12/22 16:48:51;;;;;;;2.90;1.90;;;;;;;9.94;94.71;98242.06;7266558;40;21426;31
2023/12/22 16:54:11;;;;;;;3.45;1.60;;;;;;;9.94;94.25;98258.22;7196373;40;20434;31
2023/12/22 16:59:47;;;;;;;2.50;1.50;;;;;;;9.94;94.86;98265.47;7198696;40;20373;31
2023/12/22 17:05:24;;;;;;;3.50;1.90;;;;;;;9.91;94.72;98269.38;7143986;40;20256;31
2023/12/22 17:10:59;;;;;;;3.25;1.30;;;;;;;9.91;94.51;98279.31;7134890;40;20488;31
2023/12/22 17:16:19;;;;;;;1.70;1.20;;;;;;;9.92;94.87;98289.88;7156468;40;20803;31
2023/12/22 17:21:55;;;;;;;3.50;1.40;;;;;;;9.89;95.15;98297.47;7176345;40;20284;31
2023/12/22 17:27:30;;;;;;;25.30;12.47;;;;;;;9.87;95.55;98305.72;7179001;40;20683;31
2023/12/22 17:33:06;;;;;;;2.23;1.30;;;;;;;9.88;94.51;98303.88;7147703;40;20247;31
2023/12/22 17:38:42;;;;;;;1.57;0.93;;;;;;;9.88;94.51;98304.72;7162516;40;20694;31
2023/12/22 17:44:18;;;;;;;1.40;1.10;;;;;;;9.86;94.77;98293.31;7166816;40;20258;31
2023/12/22 17:49:38;;;;;;;1.67;1.00;;;;;;;9.85;95.53;98305.09;7141544;40;20388;31
2023/12/22 17:55:14;;;;;;;2.30;1.10;;;;;;;9.80;95.61;98306.66;7156744;40;20683;31
2023/12/22 18:00:34;;;;;;;1.23;1.00;;;;;;;9.83;94.91;98306.28;7185200;40;20331;31
2023/12/22 18:05:54;;;;;;;1.50;1.10;;;;;;;9.80;95.78;98310.19;7164159;40;20290;31
2023/12/22 18:16:35;;;;;;;1.70;1.10;;;;;;;9.80;95.41;98322.78;7182148;40;21385;31
2023/12/22 18:21:55;;;;;;;1.47;1.00;;;;;;;9.83;94.74;98335.88;7259135;40;20271;31
2023/12/22 18:27:15;;;;;;;2.20;1.20;;;;;;;9.80;94.75;98339.78;7239544;40;20662;31
2023/12/22 18:32:51;;;;;;;1.40;1.17;;;;;;;9.78;95.05;98332.94;7239101;40;20257;31
2023/12/22 18:38:12;;;;;;;1.50;1.10;;;;;;;9.81;95.26;98332.56;7239551;40;20258;31
2023/12/22 18:43:47;;;;;;;1.63;1.00;;;;;;;9.82;94.65;98339.63;7234321;40;20401;31
2023/12/22 18:49:23;;;;;;;3.20;1.30;;;;;;;9.77;94.58;98348.22;7237709;40;20245;31
2023/12/22 18:54:58;;;;;;;4.67;1.30;;;;;;;9.77;95.26;98356.31;7217781;40;20774;31
2023/12/22 19:00:31;;;;;;;2.80;1.20;;;;;;;9.77;95.68;98377.84;7186243;40;20765;31
2023/12/22 19:06:09;;;;;;;2.40;1.50;;;;;;;9.73;95.52;98381.91;7186396;40;21348;31
2023/12/22 19:11:28;;;;;;;4.30;1.60;;;;;;;9.75;95.82;98400.53;7175898;40;20274;31
2023/12/22 19:22:06;;;;;;;3.10;1.30;;;;;;;9.72;95.01;98412.53;7244240;40;20414;31
2023/12/22 19:32:46;;;;;;;2.65;1.20;;;;;;;9.73;95.77;98434.88;7259403;40;20496;31
2023/12/22 19:38:23;;;;;;;2.60;1.40;;;;;;;9.68;95.89;98430.03;7259992;40;20716;31
2023/12/22 19:43:43;;;;;;;2.35;1.20;;;;;;;9.68;95.96;98429.19;7195481;40;20241;31
2023/12/22 19:49:03;;;;;;;2.50;1.23;;;;;;;9.69;95.46;98430.87;7198052;40;20318;31
2023/12/22 19:54:39;;;;;;;3.50;1.80;;;;;;;9.66;95.34;98437.44;7213259;40;20261;31
2023/12/22 20:00:14;;;;;;;2.60;1.60;;;;;;;9.71;95.10;98448.50;7215635;40;20241;31
2023/12/22 20:05:35;;;;;;;2.53;1.52;;;;;;;9.69;94.54;98445.19;7206023;40;20257;31
2023/12/22 20:11:11;;;;;;;3.60;1.65;;;;;;;9.67;95.19;98457.12;7197590;40;20338;31
2023/12/22 20:16:31;;;;;;;4.05;1.75;;;;;;;9.65;96.07;98470.78;7196330;40;20494;31
2023/12/22 20:21:51;;;;;;;4.00;2.00;;;;;;;9.62;96.41;98479.19;7205536;40;20388;31
2023/12/22 20:27:21;;;;;;;6.73;3.00;;;;;;;9.56;96.50;98474.53;7214585;40;20355;31
2023/12/22 20:32:56;;;;;;;4.90;2.70;;;;;;;9.54;97.33;98473.00;7260604;39;20357;31
2023/12/22 20:38:31;;;;;;;2.20;1.70;;;;;;;9.54;96.91;98483.78;7205292;40;20227;31
2023/12/22 20:44:07;;;;;;;7.43;2.37;;;;;;;9.47;98.25;98484.50;7189464;40;20335;31
2023/12/22 20:49:42;;;;;;;4.35;1.95;;;;;;;9.48;97.80;98520.28;7188065;40;20246;31
2023/12/22 20:55:14;;;;;;;3.65;1.70;;;;;;;9.48;97.41;98514.91;7187223;40;20353;31
2023/12/22 21:00:49;;;;;;;4.03;1.67;;;;;;;9.48;96.52;98513.06;7222148;40;20517;31
2023/12/22 21:06:25;;;;;;;4.55;1.40;;;;;;;9.46;96.96;98503.50;7233703;40;20408;31
2023/12/22 21:11:45;;;;;;;3.17;1.47;;;;;;;9.45;96.94;98518.78;7216000;40;20376;31
2023/12/22 21:17:21;;;;;;;4.80;2.80;;;;;;;9.39;97.02;98514.09;7222716;40;20242;31
2023/12/22 21:22:57;;;;;;;3.35;1.60;;;;;;;9.39;97.22;98532.13;7224550;40;20234;31
2023/12/22 21:28:18;;;;;;;9.97;6.77;;;;;;;9.40;97.64;98531.09;7232293;40;20442;31
2023/12/22 21:33:52;;;;;;;3.57;2.23;;;;;;;9.36;97.59;98538.69;7082914;40;21212;31
2023/12/22 21:39:24;;;;;;;4.40;1.80;;;;;;;9.37;97.56;98523.37;7248604;40;20706;31
2023/12/22 21:44:56;;;;;;;2.50;1.40;;;;;;;9.34;97.58;98523.75;7244337;40;20766;31
2023/12/22 21:50:29;;;;;;;3.13;1.80;;;;;;;9.33;97.50;98530.13;7252123;40;21447;31
2023/12/22 21:56:04;;;;;;;4.70;1.70;;;;;;;9.36;97.75;98562.88;7188567;40;20240;31
2023/12/22 22:01:25;;;;;;;4.55;1.90;;;;;;;9.35;97.13;98552.28;7170483;40;20585;31
2023/12/22 22:07:01;;;;;;;4.15;1.70;;;;;;;9.36;96.06;98549.44;7158600;40;20748;31
2023/12/22 22:12:21;;;;;;;3.87;1.70;;;;;;;9.35;96.75;98558.50;7178980;40;20495;31
2023/12/22 22:17:41;;;;;;;3.73;2.00;;;;;;;9.37;96.50;98556.50;7204893;40;20315;31
2023/12/22 22:23:17;;;;;;;4.60;1.80;;;;;;;9.35;96.01;98563.88;7233679;40;20252;31
2023/12/22 22:28:38;;;;;;;4.53;1.87;;;;;;;9.41;95.57;98575.81;7264863;40;20242;31
2023/12/22 22:33:57;;;;;;;6.90;1.83;;;;;;;9.41;95.80;98573.94;7287043;39;20671;31
2023/12/22 22:44:34;;;;;;;7.10;2.00;;;;;;;9.38;95.02;98578.84;7307050;39;20433;31
2023/12/22 22:49:54;;;;;;;7.10;2.20;;;;;;;9.41;94.63;98603.53;7293462;39;20240;31
2023/12/22 22:55:29;;;;;;;5.73;1.97;;;;;;;9.41;94.95;98614.28;7277228;40;20454;31
2023/12/22 23:01:06;;;;;;;5.80;2.00;;;;;;;9.36;94.86;98615.81;7240546;40;20238;31
2023/12/22 23:06:41;;;;;;;6.95;2.00;;;;;;;9.39;94.96;98642.41;7180555;40;20229;31
2023/12/22 23:12:02;;;;;;;5.47;1.80;;;;;;;9.33;95.35;98625.09;7181531;40;20221;31
2023/12/22 23:17:36;;;;;;;4.77;1.90;;;;;;;9.30;95.21;98619.22;7207849;40;20247;31
2023/12/22 23:22:57;;;;;;;4.30;1.50;;;;;;;9.30;95.76;98651.50;7205911;40;20340;31
2023/12/22 23:28:30;;;;;;;5.57;1.97;;;;;;;9.25;96.29;98632.34;7222832;40;20652;31
2023/12/22 23:34:04;;;;;;;4.83;1.80;;;;;;;9.23;96.23;98629.81;7200824;40;20697;31
2023/12/22 23:44:29;;;;;;;7.00;1.70;;;;;;;9.24;96.62;98653.00;7221885;40;20402;31
2023/12/22 23:55:10;;;;;;;3.97;1.67;;;;;;;9.21;95.80;98665.97;7252236;39;20242;31
